createdAt,value
2019-04-26T00:01:52.042Z,20.45
2019-04-26T00:04:47.403Z,20.57
2019-04-26T00:07:42.267Z,20.52
2019-04-26T00:11:04.098Z,21.25
2019-04-26T00:14:23.059Z,21.12
2019-04-26T00:17:30.738Z,20.08
2019-04-26T00:20:26.082Z,20.30
2019-04-26T00:23:20.974Z,24.23
2019-04-26T00:26:15.826Z,21.55
2019-04-26T00:29:12.606Z,23.67
2019-04-26T00:32:08.117Z,22.98
2019-04-26T00:35:03.196Z,25.97
2019-04-26T00:37:58.539Z,21.05
2019-04-26T00:40:54.028Z,22.13
2019-04-26T00:43:48.809Z,21.82
2019-04-26T00:46:45.386Z,22.02
2019-04-26T00:49:43.867Z,23.00
2019-04-26T00:52:37.882Z,23.75
2019-04-26T00:55:34.534Z,22.67
2019-04-26T00:58:29.957Z,21.55
2019-04-26T01:01:28.058Z,22.45
2019-04-26T01:04:23.610Z,22.90
2019-04-26T01:07:19.445Z,23.85
2019-04-26T01:10:16.180Z,21.97
2019-04-26T01:13:10.728Z,22.55
2019-04-26T01:16:06.360Z,22.95
2019-04-26T01:19:02.459Z,23.45
2019-04-26T01:22:00.634Z,24.75
2019-04-26T01:24:56.839Z,25.90
2019-04-26T01:27:52.152Z,25.70
2019-04-26T01:30:48.646Z,25.15
2019-04-26T01:33:45.879Z,27.35
2019-04-26T01:36:42.384Z,30.10
2019-04-26T01:39:39.430Z,27.62
2019-04-26T01:42:45.433Z,26.48
2019-04-26T01:45:46.822Z,27.77
2019-04-26T01:48:49.267Z,26.10
2019-04-26T01:52:08.344Z,30.20
2019-04-26T01:55:03.235Z,26.23
2019-04-26T01:57:59.119Z,25.82
2019-04-26T02:01:01.822Z,27.02
2019-04-26T02:03:56.424Z,26.55
2019-04-26T02:06:51.678Z,27.42
2019-04-26T02:09:46.960Z,25.48
2019-04-26T02:12:42.639Z,26.27
2019-04-26T02:15:37.578Z,28.27
2019-04-26T02:18:33.569Z,26.15
2019-04-26T02:21:38.045Z,28.10
2019-04-26T02:24:42.942Z,25.50
2019-04-26T02:27:38.608Z,25.23
2019-04-26T02:30:34.717Z,25.55
2019-04-26T02:33:31.151Z,24.70
2019-04-26T02:36:44.991Z,25.62
2019-04-26T02:39:26.291Z,23.20
2019-04-26T02:42:30.787Z,25.10
2019-04-26T02:46:11.112Z,24.15
2019-04-26T02:49:24.928Z,23.73
2019-04-26T02:52:32.019Z,24.27
2019-04-26T02:56:16.494Z,25.55
2019-04-26T02:59:40.967Z,25.15
2019-04-26T03:02:37.305Z,26.07
2019-04-26T03:05:33.583Z,26.07
2019-04-26T03:08:29.861Z,25.90
2019-04-26T03:11:26.206Z,27.90
2019-04-26T03:15:12.527Z,26.70
2019-04-26T03:18:02.532Z,27.25
2019-04-26T03:21:02.480Z,26.50
2019-04-26T03:24:06.742Z,27.62
2019-04-26T03:27:55.746Z,28.07
2019-04-26T03:31:05.390Z,28.30
2019-04-26T03:34:40.550Z,29.90
2019-04-26T03:38:04.791Z,31.00
2019-04-26T03:41:07.330Z,30.05
2019-04-26T03:44:27.847Z,28.27
2019-04-26T03:47:25.781Z,28.65
2019-04-26T03:50:23.944Z,27.98
2019-04-26T03:53:54.678Z,23.32
2019-04-26T03:57:13.170Z,21.02
2019-04-26T04:00:23.509Z,19.67
2019-04-26T04:03:39.421Z,19.52
2019-04-26T04:06:52.401Z,24.02
2019-04-26T04:09:30.881Z,20.35
2019-04-26T04:12:47.985Z,21.20
2019-04-26T04:15:48.306Z,19.98
2019-04-26T04:18:43.778Z,20.62
2019-04-26T04:21:51.380Z,21.07
2019-04-26T04:24:55.491Z,20.88
2019-04-26T04:28:09.724Z,20.62
2019-04-26T04:31:16.032Z,18.67
2019-04-26T04:34:29.412Z,19.85
2019-04-26T04:37:25.561Z,19.50
2019-04-26T04:40:43.138Z,19.42
2019-04-26T04:43:45.214Z,19.92
2019-04-26T04:47:22.382Z,19.37
2019-04-26T04:50:35.068Z,19.85
2019-04-26T04:54:00.286Z,21.68
2019-04-26T04:57:08.292Z,22.50
2019-04-26T05:00:18.448Z,24.45
2019-04-26T05:03:29.414Z,24.05
2019-04-26T05:07:09.410Z,23.18
2019-04-26T05:10:33.449Z,21.87
2019-04-26T05:13:55.718Z,24.25
2019-04-26T05:17:23.792Z,23.70
2019-04-26T05:20:53.425Z,20.72
2019-04-26T05:24:19.542Z,21.17
2019-04-26T05:27:55.105Z,21.52
2019-04-26T05:31:38.120Z,20.05
2019-04-26T05:34:50.822Z,20.82
2019-04-26T05:38:18.486Z,19.60
2019-04-26T05:41:42.553Z,24.70
2019-04-26T05:45:24.493Z,20.35
2019-04-26T05:49:08.900Z,19.65
2019-04-26T05:52:43.273Z,19.37
2019-04-26T05:56:29.540Z,19.17
2019-04-26T05:59:44.134Z,22.52
2019-04-26T06:03:33.690Z,22.13
2019-04-26T06:06:43.736Z,20.77
2019-04-26T06:10:17.089Z,22.40
2019-04-26T06:14:01.954Z,21.07
2019-04-26T06:17:34.922Z,23.02
2019-04-26T06:20:54.086Z,23.38
2019-04-26T06:24:29.607Z,21.90
2019-04-26T06:31:44.729Z,23.87
2019-04-26T06:35:04.490Z,23.67
2019-04-26T06:38:22.389Z,23.47
2019-04-26T06:42:03.159Z,25.25
2019-04-26T06:45:50.763Z,24.47
2019-04-26T06:49:35.595Z,22.13
2019-04-26T06:52:32.925Z,22.85
2019-04-26T06:55:33.934Z,23.15
2019-04-26T06:59:17.065Z,23.85
2019-04-26T07:02:48.832Z,26.17
2019-04-26T07:05:52.311Z,27.10
2019-04-26T07:09:03.636Z,26.25
2019-04-26T07:12:34.117Z,25.02
2019-04-26T07:16:16.435Z,26.25
2019-04-26T07:19:30.151Z,25.02
2019-04-26T07:23:02.086Z,24.65
2019-04-26T07:26:38.566Z,25.82
2019-04-26T07:30:27.855Z,20.65
2019-04-26T07:33:51.773Z,19.77
2019-04-26T07:37:50.947Z,20.00
2019-04-26T07:41:45.513Z,19.73
2019-04-26T07:45:26.676Z,20.48
2019-04-26T07:48:57.352Z,22.15
2019-04-26T07:52:28.035Z,20.48
2019-04-26T07:55:39.529Z,19.70
2019-04-26T07:59:40.049Z,24.45
2019-04-26T08:03:10.807Z,20.10
2019-04-26T08:06:32.628Z,19.82
2019-04-26T08:09:30.430Z,19.48
2019-04-26T08:12:31.547Z,19.70
2019-04-26T08:15:45.721Z,19.02
2019-04-26T08:19:01.851Z,19.07
2019-04-26T08:22:15.150Z,18.67
2019-04-26T08:24:58.655Z,19.02
2019-04-26T08:27:56.486Z,17.02
2019-04-26T08:30:59.927Z,17.27
2019-04-26T08:34:03.126Z,17.70
2019-04-26T08:37:09.106Z,17.30
2019-04-26T08:40:16.407Z,18.07
2019-04-26T08:43:30.752Z,17.90
2019-04-26T08:46:56.941Z,18.50
2019-04-26T08:50:09.700Z,19.42
2019-04-26T08:53:08.363Z,16.40
2019-04-26T08:56:07.609Z,16.10
2019-04-26T08:59:08.666Z,16.57
2019-04-26T09:02:21.714Z,16.87
2019-04-26T09:05:41.974Z,15.58
2019-04-26T09:08:43.485Z,15.65
2019-04-26T09:11:41.294Z,15.23
2019-04-26T09:14:40.619Z,15.72
2019-04-26T09:17:36.240Z,18.48
2019-04-26T09:20:42.796Z,18.15
2019-04-26T09:23:59.671Z,17.42
2019-04-26T09:27:26.151Z,18.50
2019-04-26T09:30:52.473Z,18.12
2019-04-26T09:33:55.925Z,17.73
2019-04-26T09:36:56.682Z,17.35
2019-04-26T09:39:52.860Z,16.97
2019-04-26T09:43:05.812Z,17.80
2019-04-26T09:46:19.061Z,17.55
2019-04-26T09:49:42.545Z,17.27
2019-04-26T09:52:44.649Z,18.27
2019-04-26T09:55:40.359Z,17.60
2019-04-26T09:58:40.356Z,17.60
2019-04-26T10:01:38.406Z,16.97
2019-04-26T10:04:35.090Z,18.75
2019-04-26T10:07:37.574Z,17.90
2019-04-26T10:10:36.465Z,18.15
2019-04-26T10:13:49.365Z,18.05
2019-04-26T10:16:55.299Z,18.82
2019-04-26T10:19:55.289Z,18.15
2019-04-26T10:23:00.313Z,17.67
2019-04-26T10:26:00.534Z,18.40
2019-04-26T10:28:57.034Z,18.55
2019-04-26T10:31:55.007Z,17.35
2019-04-26T10:34:56.678Z,16.62
2019-04-26T10:37:54.886Z,19.37
2019-04-26T10:40:53.098Z,18.10
2019-04-26T10:43:50.834Z,17.57
2019-04-26T10:46:55.296Z,18.12
2019-04-26T10:49:54.318Z,16.95
2019-04-26T10:52:55.729Z,20.37
2019-04-26T10:56:24.108Z,20.55
2019-04-26T10:59:26.472Z,16.40
2019-04-26T11:02:27.978Z,19.67
2019-04-26T11:05:26.574Z,18.17
2019-04-26T11:08:23.441Z,17.92
2019-04-26T11:11:20.420Z,18.35
2019-04-26T11:14:22.335Z,19.92
2019-04-26T11:17:17.785Z,19.92
2019-04-26T11:20:16.582Z,17.85
2019-04-26T11:23:18.162Z,16.17
2019-04-26T11:26:16.633Z,19.00
2019-04-26T11:29:16.505Z,22.22
2019-04-26T11:35:57.824Z,26.25
2019-04-26T11:38:56.653Z,25.10
2019-04-26T11:42:02.110Z,23.50
2019-04-26T11:51:34.388Z,19.85
2019-04-26T11:54:36.077Z,22.17
2019-04-26T11:57:47.571Z,20.12
2019-04-26T12:00:47.707Z,20.27
2019-04-26T12:03:51.609Z,21.20
2019-04-26T12:06:56.462Z,21.20
2019-04-26T12:09:56.074Z,20.65
2019-04-26T12:13:04.869Z,19.82
2019-04-26T12:15:54.292Z,21.85
2019-04-26T12:18:53.540Z,21.50
2019-04-26T12:21:51.768Z,19.80
2019-04-26T12:24:50.683Z,20.82
2019-04-26T12:27:53.542Z,23.45
2019-04-26T12:31:02.703Z,21.50
2019-04-26T12:34:02.994Z,21.87
2019-04-26T12:37:03.027Z,25.23
2019-04-26T12:40:01.925Z,22.02
2019-04-26T12:43:01.279Z,22.82
2019-04-26T12:46:31.846Z,24.75
2019-04-26T12:49:35.423Z,23.12
2019-04-26T12:52:33.262Z,20.85
2019-04-26T12:55:32.048Z,22.95
2019-04-26T12:58:31.103Z,23.42
2019-04-26T13:01:30.869Z,24.70
2019-04-26T13:04:35.844Z,22.95
2019-04-26T13:07:25.826Z,22.32
2019-04-26T13:10:39.875Z,25.00
2019-04-26T13:13:55.345Z,25.32
2019-04-26T13:17:01.145Z,26.20
2019-04-26T13:19:55.568Z,25.55
2019-04-26T13:22:54.306Z,24.12
2019-04-26T13:25:50.437Z,23.90
2019-04-26T13:28:48.089Z,25.70
2019-04-26T13:31:47.496Z,24.98
2019-04-26T13:34:45.504Z,24.23
2019-04-26T13:37:44.665Z,24.40
2019-04-26T13:40:40.269Z,24.80
2019-04-26T13:43:35.564Z,23.98
2019-04-26T13:47:07.961Z,24.92
2019-04-26T13:50:13.276Z,24.95
2019-04-26T13:53:12.265Z,25.12
2019-04-26T13:56:07.859Z,26.45
2019-04-26T13:59:03.519Z,27.22
2019-04-26T14:02:10.808Z,25.37
2019-04-26T14:04:56.085Z,23.85
2019-04-26T14:07:51.317Z,25.55
2019-04-26T14:10:49.730Z,24.75
2019-04-26T14:13:41.956Z,26.60
2019-04-26T14:16:37.172Z,25.75
2019-04-26T14:19:33.442Z,27.65
2019-04-26T14:22:37.028Z,27.13
2019-04-26T14:25:33.472Z,25.68
2019-04-26T14:28:29.816Z,27.95
2019-04-26T14:31:24.990Z,24.45
2019-04-26T14:34:20.984Z,25.10
2019-04-26T14:37:16.737Z,24.63
2019-04-26T14:40:17.180Z,24.72
2019-04-26T14:43:12.022Z,25.05
2019-04-26T14:46:10.526Z,24.20
2019-04-26T14:49:08.110Z,23.83
2019-04-26T14:52:06.410Z,25.45
2019-04-26T14:55:05.937Z,26.07
2019-04-26T14:58:02.048Z,25.68
2019-04-26T15:01:00.817Z,28.42
2019-04-26T15:04:14.223Z,25.92
2019-04-26T15:07:10.131Z,24.75
2019-04-26T15:10:06.841Z,28.98
2019-04-26T15:13:14.309Z,26.07
2019-04-26T15:15:58.023Z,23.87
2019-04-26T15:18:54.067Z,25.75
2019-04-26T15:21:52.311Z,23.67
2019-04-26T15:24:46.742Z,23.00
2019-04-26T15:27:44.118Z,25.00
2019-04-26T15:30:44.538Z,29.42
2019-04-26T15:33:37.081Z,25.90
2019-04-26T15:36:33.473Z,25.77
2019-04-26T15:39:55.135Z,26.85
2019-04-26T15:43:02.641Z,24.47
2019-04-26T15:46:12.518Z,24.92
2019-04-26T15:49:36.366Z,25.00
2019-04-26T15:52:34.119Z,23.47
2019-04-26T15:55:39.689Z,23.73
2019-04-26T15:58:29.903Z,22.32
2019-04-26T16:01:26.708Z,24.52
2019-04-26T16:04:23.932Z,23.55
2019-04-26T16:07:27.410Z,23.20
2019-04-26T16:10:18.639Z,24.77
2019-04-26T16:13:20.935Z,25.95
2019-04-26T16:16:16.591Z,24.65
2019-04-26T16:19:17.600Z,24.15
2019-04-26T16:22:17.687Z,23.90
2019-04-26T16:25:18.661Z,26.87
2019-04-26T16:28:44.488Z,26.95
2019-04-26T16:31:52.907Z,23.32
2019-04-26T16:34:52.840Z,24.70
2019-04-26T16:37:48.630Z,23.45
2019-04-26T16:40:50.641Z,23.83
2019-04-26T16:43:53.114Z,22.42
2019-04-26T16:46:44.072Z,23.60
2019-04-26T16:49:43.411Z,25.35
2019-04-26T16:52:43.535Z,24.57
2019-04-26T16:55:49.217Z,22.93
2019-04-26T16:58:38.129Z,21.68
2019-04-26T17:01:38.096Z,22.95
2019-04-26T17:04:36.334Z,19.87
2019-04-26T17:07:32.909Z,22.35
2019-04-26T17:10:29.466Z,20.70
2019-04-26T17:13:29.928Z,22.60
2019-04-26T17:16:25.656Z,23.95
2019-04-26T17:19:22.973Z,22.20
2019-04-26T17:22:41.797Z,22.60
2019-04-26T17:25:47.301Z,22.65
2019-04-26T17:28:43.944Z,22.17
2019-04-26T17:31:41.067Z,22.58
2019-04-26T17:34:36.852Z,22.35
2019-04-26T17:37:33.660Z,23.10
2019-04-26T17:40:36.174Z,24.20
2019-04-26T17:43:28.487Z,22.85
2019-04-26T17:46:25.350Z,23.52
2019-04-26T17:49:26.965Z,24.37
2019-04-26T17:52:20.281Z,24.45
2019-04-26T17:55:16.340Z,24.37
2019-04-26T17:58:17.354Z,23.50
2019-04-26T18:01:09.487Z,26.15
2019-04-26T18:04:06.127Z,24.67
2019-04-26T18:07:08.131Z,25.15
2019-04-26T18:10:02.371Z,25.48
2019-04-26T18:12:56.531Z,25.32
2019-04-26T18:15:53.444Z,25.27
2019-04-26T18:19:02.432Z,25.55
2019-04-26T18:22:14.703Z,25.77
2019-04-26T18:25:12.694Z,29.15
2019-04-26T18:28:08.699Z,24.80
2019-04-26T18:31:05.605Z,26.90
2019-04-26T18:34:01.793Z,26.20
2019-04-26T18:36:57.407Z,33.25
2019-04-26T18:39:57.340Z,27.25
2019-04-26T18:42:50.158Z,27.05
2019-04-26T18:45:47.892Z,26.15
2019-04-26T18:48:46.022Z,27.48
2019-04-26T18:51:47.843Z,26.68
2019-04-26T18:54:59.202Z,26.52
2019-04-26T18:58:01.522Z,26.48
2019-04-26T19:00:53.100Z,25.72
2019-04-26T19:03:51.022Z,26.50
2019-04-26T19:06:47.478Z,26.00
2019-04-26T19:09:58.554Z,25.12
2019-04-26T19:12:43.687Z,26.60
2019-04-26T19:15:54.234Z,26.12
2019-04-26T19:18:56.674Z,26.52
2019-04-26T19:22:00.675Z,25.10
2019-04-26T19:24:57.478Z,26.75
2019-04-26T19:27:53.924Z,27.22
2019-04-26T19:30:50.974Z,26.30
2019-04-26T19:33:43.681Z,26.50
2019-04-26T19:36:41.950Z,26.40
2019-04-26T19:39:37.826Z,26.77
2019-04-26T19:42:34.587Z,26.73
2019-04-26T19:45:49.598Z,26.70
2019-04-26T19:49:14.471Z,26.80
2019-04-26T19:52:22.149Z,26.07
2019-04-26T19:55:51.328Z,25.62
2019-04-26T19:58:50.713Z,26.02
2019-04-26T20:01:47.830Z,25.92
2019-04-26T20:04:46.384Z,26.55
2019-04-26T20:07:43.883Z,25.55
2019-04-26T20:10:45.424Z,26.15
2019-04-26T20:13:38.308Z,26.17
2019-04-26T20:16:36.479Z,25.57
2019-04-26T20:19:37.228Z,25.80
2019-04-26T20:22:30.577Z,26.25
2019-04-26T20:25:26.447Z,25.62
2019-04-26T20:28:22.783Z,25.30
2019-04-26T20:31:30.131Z,26.52
2019-04-26T20:34:26.361Z,25.92
2019-04-26T20:37:25.662Z,25.62
2019-04-26T20:40:22.515Z,25.77
2019-04-26T20:43:24.451Z,25.95
2019-04-26T20:46:15.215Z,25.68
2019-04-26T20:49:09.304Z,24.85
2019-04-26T20:52:04.595Z,25.45
2019-04-26T20:55:00.917Z,25.17
2019-04-26T20:57:59.681Z,24.00
2019-04-26T21:00:54.885Z,25.08
2019-04-26T21:03:51.842Z,25.15
2019-04-26T21:06:48.867Z,25.70
2019-04-26T21:09:45.399Z,24.50
2019-04-26T21:12:43.175Z,26.27
2019-04-26T21:15:53.421Z,24.45
2019-04-26T21:18:40.306Z,24.90
2019-04-26T21:21:43.505Z,23.80
2019-04-26T21:24:37.774Z,24.75
2019-04-26T21:27:47.801Z,24.37
2019-04-26T21:30:51.470Z,24.30
2019-04-26T21:33:50.804Z,25.02
2019-04-26T21:37:23.336Z,24.98
2019-04-26T21:40:40.997Z,25.02
2019-04-26T21:43:39.401Z,24.67
2019-04-26T21:46:37.742Z,24.63
2019-04-26T21:49:37.958Z,24.57
2019-04-26T21:52:34.288Z,24.60
2019-04-26T21:55:35.282Z,27.00
2019-04-26T21:58:29.648Z,26.30
2019-04-26T22:01:27.388Z,26.42
2019-04-26T22:04:28.635Z,27.02
2019-04-26T22:07:24.156Z,25.05
2019-04-26T22:10:43.673Z,25.25
2019-04-26T22:13:51.775Z,25.82
2019-04-26T22:17:02.200Z,26.00
2019-04-26T22:20:17.934Z,26.25
2019-04-26T22:23:25.899Z,26.07
2019-04-26T22:26:20.937Z,25.52
2019-04-26T22:29:16.943Z,25.82
2019-04-26T22:32:15.916Z,25.55
2019-04-26T22:35:19.914Z,25.70
2019-04-26T22:38:13.027Z,24.72
2019-04-26T22:41:13.322Z,25.30
2019-04-26T22:44:17.767Z,25.25
2019-04-26T22:47:45.065Z,24.52
2019-04-26T22:50:43.563Z,24.10
2019-04-26T22:53:38.459Z,24.70
2019-04-26T22:56:37.254Z,25.15
2019-04-26T22:59:31.079Z,23.40
2019-04-26T23:02:27.565Z,23.20
2019-04-26T23:05:23.618Z,23.40
2019-04-26T23:08:19.460Z,22.42
2019-04-26T23:11:15.849Z,23.83
2019-04-26T23:14:25.718Z,22.45
2019-04-26T23:17:35.704Z,22.67
2019-04-26T23:20:38.874Z,22.67
2019-04-26T23:23:37.167Z,22.67
2019-04-26T23:26:33.351Z,23.07
2019-04-26T23:29:29.346Z,21.82
2019-04-26T23:32:25.592Z,21.65
2019-04-26T23:35:21.877Z,22.75
2019-04-26T23:38:17.851Z,21.55
2019-04-26T23:41:14.626Z,22.07
2019-04-26T23:44:10.892Z,22.93
2019-04-26T23:47:18.606Z,22.10
2019-04-26T23:50:04.040Z,22.05
2019-04-26T23:53:02.944Z,24.27
2019-04-26T23:55:59.300Z,21.23
2019-04-26T23:58:56.019Z,21.82
